Seiyu Maru — JD3189 — position and weather

sailwx.info

Track history (hours):
 
Tides and Currents Weather Stations Pressure Air Temp Water Temp Dewpoint Dewpoint Depression Visibility Wind Speed Wind Dir Waves Ship Positions

Seiyu Maru

Last reported at 2017-Mar-16 13:10 UTC. Time now 2017-Mar-27 12:42 UTC.
Position N 34°02' E 135°01'.
Warning: this ship's position is 10 days out of date.

Length 75 m; draft 4.5 m.

Type: Cargo ship. MMSI: 431002433.

Date/timePositionNaut miles runAvg speedWind from/ knotsBaromVisibWave heightAir tempDewpointWater temp
2017-Mar-16 13:10N 34°02' E 135°01'711.0
2017-Mar-16 12:32N 34°09' E 135°02'1110.7
2017-Mar-16 11:32N 34°19' E 135°04'1111.1
2017-Mar-16 10:32N 34°28' E 135°12'1111.1
2017-Mar-16 09:33N 34°36' E 135°21'3 3.3
2017-Mar-16 08:33N 34°38' E 135°25'0 0.0
2017-Mar-16 05:22N 34°38' E 135°25'0 0.0
2017-Mar-16 02:28N 34°38' E 135°25'0 0.0
2017-Mar-16 01:28N 34°38' E 135°25'0 0.0
2017-Mar-16 00:28N 34°38' E 135°25'0 0.0
2017-Mar-15 23:16N 34°38' E 135°25'2 2.7
2017-Mar-15 22:33N 34°38' E 135°22'5 4.6
2017-Mar-15 21:33N 34°39' E 135°28'0 0.0
2017-Mar-15 05:23N 34°39' E 135°28'0 0.0
2017-Mar-14 05:14N 34°39' E 135°28'1 1.2
2017-Mar-14 04:06N 34°38' E 135°27'3 5.1
2017-Mar-14 03:33N 34°38' E 135°23'1010.4
2017-Mar-14 02:33N 34°35' E 135°11'13210.1
2017-Mar-13 13:24N 33°55' E 132°39'1012.1
2017-Mar-13 12:33N 33°48' E 132°29'18 0.6
2017-Mar-12 04:17N 34°01' E 132°45'  
Track history (hours):
 
Tides and Currents Weather Stations Pressure Air Temp Water Temp Dewpoint Dewpoint Depression Visibility Wind Speed Wind Dir Waves Ship Positions

Seiyu Maru

Last reported at 2017-Mar-16 13:10 UTC. Time now 2017-Mar-27 12:42 UTC.
Position N 34°02' E 135°01'.
Warning: this ship's position is 10 days out of date.

Length 75 m; draft 4.5 m.

Type: Cargo ship. MMSI: 431002433.

Date/timePositionNaut miles runAvg speedWind from/ knotsBaromVisibWave heightAir tempDewpointWater temp
2017-Mar-16 13:10N 34°02' E 135°01'711.0
2017-Mar-16 12:32N 34°09' E 135°02'1110.7
2017-Mar-16 11:32N 34°19' E 135°04'1111.1
2017-Mar-16 10:32N 34°28' E 135°12'1111.1
2017-Mar-16 09:33N 34°36' E 135°21'3 3.3
2017-Mar-16 08:33N 34°38' E 135°25'0 0.0
2017-Mar-16 05:22N 34°38' E 135°25'0 0.0
2017-Mar-16 02:28N 34°38' E 135°25'0 0.0
2017-Mar-16 01:28N 34°38' E 135°25'0 0.0
2017-Mar-16 00:28N 34°38' E 135°25'0 0.0
2017-Mar-15 23:16N 34°38' E 135°25'2 2.7
2017-Mar-15 22:33N 34°38' E 135°22'5 4.6
2017-Mar-15 21:33N 34°39' E 135°28'0 0.0
2017-Mar-15 05:23N 34°39' E 135°28'0 0.0
2017-Mar-14 05:14N 34°39' E 135°28'1 1.2
2017-Mar-14 04:06N 34°38' E 135°27'3 5.1
2017-Mar-14 03:33N 34°38' E 135°23'1010.4
2017-Mar-14 02:33N 34°35' E 135°11'13210.1
2017-Mar-13 13:24N 33°55' E 132°39'1012.1
2017-Mar-13 12:33N 33°48' E 132°29'18 0.6
2017-Mar-12 04:17N 34°01' E 132°45'  

Dump ship's entire track history